createdAt,value
2022-12-14T00:01:39.057Z,4.57
2022-12-14T00:04:06.055Z,7.53
2022-12-14T00:06:33.951Z,5.35
2022-12-14T00:09:03.681Z,3.20
2022-12-14T00:11:32.345Z,4.57
2022-12-14T00:14:01.723Z,3.17
2022-12-14T00:16:31.449Z,5.22
2022-12-14T00:19:00.473Z,3.22
2022-12-14T00:21:28.277Z,1.88
2022-12-14T00:23:56.813Z,3.60
2022-12-14T00:26:29.172Z,4.82
2022-12-14T00:28:56.740Z,3.47
2022-12-14T00:31:25.274Z,2.00
2022-12-14T00:33:52.911Z,2.58
2022-12-14T00:36:20.535Z,3.92
2022-12-14T00:38:48.092Z,2.70
2022-12-14T00:41:15.159Z,3.92
2022-12-14T00:43:42.470Z,3.20
2022-12-14T00:46:09.640Z,2.78
2022-12-14T00:48:36.771Z,3.92
2022-12-14T00:51:04.583Z,4.30
2022-12-14T00:53:32.249Z,3.25
2022-12-14T00:56:06.846Z,7.13
2022-12-14T00:58:34.643Z,5.80
2022-12-14T01:01:04.820Z,8.52
2022-12-14T01:03:32.730Z,4.05
2022-12-14T01:06:00.508Z,5.55
2022-12-14T01:08:35.961Z,3.28
2022-12-14T01:11:08.287Z,4.47
2022-12-14T01:13:36.915Z,2.38
2022-12-14T01:16:12.277Z,4.72
2022-12-14T01:18:41.618Z,2.38
2022-12-14T01:21:17.609Z,7.10
2022-12-14T01:23:46.139Z,11.60
2022-12-14T01:26:15.592Z,7.18
2022-12-14T01:28:42.930Z,7.38
2022-12-14T01:31:12.650Z,4.80
2022-12-14T01:33:39.926Z,6.45
2022-12-14T01:36:13.923Z,9.65
2022-12-14T01:38:41.154Z,6.90
2022-12-14T01:41:09.690Z,8.23
2022-12-14T01:44:01.498Z,8.02
2022-12-14T01:46:28.532Z,6.93
2022-12-14T01:49:02.433Z,6.15
2022-12-14T01:51:31.555Z,6.65
2022-12-14T01:54:01.119Z,9.75
2022-12-14T01:56:29.767Z,8.45
2022-12-14T01:59:02.244Z,7.63
2022-12-14T02:01:29.431Z,8.13
2022-12-14T02:03:56.758Z,8.68
2022-12-14T02:06:29.738Z,11.35
2022-12-14T02:08:57.785Z,5.82
2022-12-14T02:11:33.523Z,5.72
2022-12-14T02:14:00.741Z,8.90
2022-12-14T02:16:28.008Z,4.35
2022-12-14T02:18:55.053Z,7.00
2022-12-14T02:21:24.107Z,5.85
2022-12-14T02:24:03.085Z,5.18
2022-12-14T02:26:52.923Z,8.80
2022-12-14T02:29:49.416Z,13.23
2022-12-14T02:32:23.733Z,7.32
2022-12-14T02:35:05.557Z,7.00
2022-12-14T02:37:43.539Z,5.90
2022-12-14T02:40:49.261Z,9.23
2022-12-14T02:44:01.230Z,7.97
2022-12-14T02:46:48.779Z,6.30
2022-12-14T02:49:55.498Z,7.88
2022-12-14T02:53:19.533Z,7.57
2022-12-14T02:55:54.617Z,6.93
2022-12-14T02:58:21.779Z,6.22
2022-12-14T03:00:49.664Z,5.88
2022-12-14T03:03:16.713Z,5.28
2022-12-14T03:05:43.939Z,9.88
2022-12-14T03:08:17.265Z,7.47
2022-12-14T03:10:58.279Z,9.25
2022-12-14T03:13:43.986Z,7.68
2022-12-14T03:16:22.846Z,12.15
2022-12-14T03:18:52.802Z,14.45
2022-12-14T03:21:24.066Z,9.82
2022-12-14T03:23:53.402Z,12.73
2022-12-14T03:26:47.845Z,12.20
2022-12-14T03:29:23.116Z,13.82
2022-12-14T03:31:56.606Z,11.32
2022-12-14T03:34:32.844Z,11.75
2022-12-14T03:37:16.112Z,12.00
2022-12-14T03:39:45.983Z,7.32
2022-12-14T03:42:23.050Z,14.48
2022-12-14T03:45:43.022Z,15.85
2022-12-14T03:48:28.383Z,13.18
2022-12-14T03:51:15.979Z,11.00
2022-12-14T03:53:59.231Z,10.52
2022-12-14T03:56:49.643Z,15.02
2022-12-14T03:59:46.478Z,11.07
2022-12-14T04:02:22.190Z,14.38
2022-12-14T04:04:58.199Z,10.90
2022-12-14T04:07:35.385Z,10.40
2022-12-14T04:10:31.922Z,10.73
2022-12-14T04:13:43.279Z,8.55
2022-12-14T04:16:40.470Z,9.68
2022-12-14T04:19:16.635Z,8.70
2022-12-14T04:21:46.245Z,6.15
2022-12-14T04:24:47.173Z,5.78
2022-12-14T04:27:20.884Z,13.02
2022-12-14T04:32:41.020Z,11.13
2022-12-14T04:35:26.219Z,9.97
2022-12-14T04:38:01.668Z,7.50
2022-12-14T04:40:36.434Z,11.40
2022-12-14T04:43:13.713Z,5.88
2022-12-14T04:45:46.260Z,12.55
2022-12-14T04:48:28.081Z,6.32
2022-12-14T04:51:18.595Z,7.57
2022-12-14T04:53:50.408Z,10.38
2022-12-14T04:56:22.348Z,15.00
2022-12-14T04:58:49.872Z,9.88
2022-12-14T05:01:30.769Z,10.90
2022-12-14T05:04:15.016Z,6.85
2022-12-14T05:06:47.986Z,4.50
2022-12-14T05:09:26.906Z,7.85
2022-12-14T05:12:03.038Z,4.28
2022-12-14T05:14:51.528Z,4.40
2022-12-14T05:17:19.143Z,2.67
2022-12-14T05:19:48.767Z,11.40
2022-12-14T05:22:18.305Z,20.58
2022-12-14T05:24:45.361Z,21.85
2022-12-14T05:27:12.492Z,35.42
2022-12-14T05:29:39.606Z,21.75
2022-12-14T05:32:06.671Z,30.77
2022-12-14T05:34:34.428Z,20.95
2022-12-14T05:37:01.759Z,29.88
2022-12-14T05:39:28.801Z,24.25
2022-12-14T05:41:55.944Z,22.50
2022-12-14T05:44:23.657Z,22.00
2022-12-14T05:46:50.696Z,17.08
2022-12-14T05:49:17.820Z,17.92
2022-12-14T05:51:44.867Z,21.15
2022-12-14T05:54:11.964Z,15.60
2022-12-14T05:56:39.143Z,17.30
2022-12-14T05:59:06.215Z,18.10
2022-12-14T06:01:33.398Z,12.23
2022-12-14T06:04:00.574Z,7.05
2022-12-14T06:06:27.625Z,10.88
2022-12-14T06:08:54.718Z,8.15
2022-12-14T06:11:23.592Z,8.27
2022-12-14T06:13:51.039Z,8.85
2022-12-14T06:16:19.342Z,6.10
2022-12-14T06:18:51.558Z,8.60
2022-12-14T06:21:21.136Z,9.15
2022-12-14T06:23:48.639Z,9.48
2022-12-14T06:26:16.466Z,9.40
2022-12-14T06:28:43.845Z,8.45
2022-12-14T06:31:23.003Z,9.68
2022-12-14T06:33:50.649Z,10.68
2022-12-14T06:36:33.596Z,9.05
2022-12-14T06:39:04.186Z,6.80
2022-12-14T06:41:31.465Z,9.80
2022-12-14T06:44:05.770Z,16.40
2022-12-14T06:46:33.288Z,11.35
2022-12-14T06:49:00.803Z,10.73
2022-12-14T06:51:27.958Z,16.42
2022-12-14T06:53:57.180Z,11.65
2022-12-14T06:56:27.095Z,10.25
2022-12-14T06:58:55.931Z,15.00
2022-12-14T07:01:25.840Z,12.95
2022-12-14T07:04:00.081Z,15.75
2022-12-14T07:06:31.668Z,20.63
2022-12-14T07:08:59.996Z,19.75
2022-12-14T07:11:29.639Z,15.15
2022-12-14T07:13:57.981Z,22.25
2022-12-14T07:16:27.247Z,20.80
2022-12-14T07:18:55.625Z,15.05
2022-12-14T07:21:25.030Z,16.55
2022-12-14T07:23:53.124Z,15.88
2022-12-14T07:26:25.755Z,17.02
2022-12-14T07:28:53.668Z,15.68
2022-12-14T07:31:27.107Z,12.60
2022-12-14T07:33:59.612Z,10.48
2022-12-14T07:36:28.838Z,9.90
2022-12-14T07:38:57.061Z,6.32
2022-12-14T07:41:27.263Z,11.07
2022-12-14T07:43:55.254Z,8.80
2022-12-14T07:46:24.786Z,12.10
2022-12-14T07:48:54.544Z,9.07
2022-12-14T07:51:27.770Z,9.52
2022-12-14T07:53:55.328Z,7.15
2022-12-14T07:56:28.307Z,14.10
2022-12-14T07:58:56.792Z,13.48
2022-12-14T08:01:34.696Z,13.00
2022-12-14T08:04:07.800Z,14.57
2022-12-14T08:06:36.234Z,12.27
2022-12-14T08:09:04.773Z,7.93
2022-12-14T08:11:31.791Z,11.23
2022-12-14T08:14:04.996Z,9.80
2022-12-14T08:16:32.629Z,13.18
2022-12-14T08:19:01.235Z,10.70
2022-12-14T08:21:29.147Z,25.65
2022-12-14T08:23:57.474Z,18.73
2022-12-14T08:26:31.508Z,15.05
2022-12-14T08:29:02.151Z,24.98
2022-12-14T08:31:29.364Z,20.55
2022-12-14T08:33:58.045Z,22.92
2022-12-14T08:36:34.430Z,17.48
2022-12-14T08:39:04.461Z,14.93
2022-12-14T08:41:31.779Z,11.18
2022-12-14T08:44:01.061Z,11.20
2022-12-14T08:46:30.842Z,13.02
2022-12-14T08:48:58.258Z,14.13
2022-12-14T08:51:26.965Z,9.52
2022-12-14T08:53:54.905Z,9.90
2022-12-14T08:56:24.363Z,11.88
2022-12-14T08:58:52.030Z,10.93
2022-12-14T09:01:31.785Z,10.02
2022-12-14T09:04:05.792Z,8.82
2022-12-14T09:06:34.888Z,11.15
2022-12-14T09:09:01.960Z,9.95
2022-12-14T09:11:29.555Z,12.13
2022-12-14T09:13:57.080Z,10.60
2022-12-14T09:16:26.569Z,13.18
2022-12-14T09:18:53.734Z,12.65
2022-12-14T09:21:21.791Z,12.50
2022-12-14T09:23:52.578Z,13.63
2022-12-14T09:26:24.913Z,10.35
2022-12-14T09:28:54.632Z,13.98
2022-12-14T09:31:24.273Z,9.88
2022-12-14T09:33:51.623Z,13.10
2022-12-14T09:36:21.406Z,11.80
2022-12-14T09:38:52.876Z,9.32
2022-12-14T09:41:35.471Z,10.85
2022-12-14T09:44:18.833Z,13.63
2022-12-14T09:47:07.554Z,11.55
2022-12-14T09:50:02.237Z,9.18
2022-12-14T09:52:43.777Z,11.50
2022-12-14T09:55:35.413Z,7.65
2022-12-14T09:58:23.516Z,10.07
2022-12-14T10:01:26.618Z,7.60
2022-12-14T10:04:08.904Z,7.20
2022-12-14T10:07:09.201Z,10.45
2022-12-14T10:10:06.285Z,11.10
2022-12-14T10:12:40.371Z,13.45
2022-12-14T10:15:22.541Z,9.00
2022-12-14T10:18:49.392Z,21.63
2022-12-14T10:21:21.165Z,12.60
2022-12-14T10:23:57.998Z,37.25
2022-12-14T10:26:39.095Z,38.97
2022-12-14T10:29:15.092Z,9.43
2022-12-14T10:31:57.574Z,7.20
2022-12-14T10:34:29.727Z,9.57
2022-12-14T10:37:35.970Z,7.55
2022-12-14T10:40:44.110Z,5.88
2022-12-14T10:43:31.176Z,6.35
2022-12-14T10:46:14.441Z,18.45
2022-12-14T10:48:48.249Z,16.25
2022-12-14T10:51:42.740Z,12.27
2022-12-14T10:54:21.568Z,10.15
2022-12-14T10:56:50.706Z,7.82
2022-12-14T10:59:24.247Z,9.45
2022-12-14T11:02:17.655Z,11.43
2022-12-14T11:04:52.552Z,13.35
2022-12-14T11:07:22.849Z,16.50
2022-12-14T11:09:49.946Z,11.90
2022-12-14T11:12:24.546Z,7.88
2022-12-14T11:15:03.905Z,11.52
2022-12-14T11:17:35.588Z,11.40
2022-12-14T11:20:17.945Z,13.45
2022-12-14T11:22:49.594Z,10.30
2022-12-14T11:25:29.133Z,17.30
2022-12-14T11:27:59.203Z,17.65
2022-12-14T11:30:27.463Z,19.15
2022-12-14T11:32:54.916Z,18.98
2022-12-14T11:35:22.501Z,18.83
2022-12-14T11:37:50.856Z,18.40
2022-12-14T11:40:28.447Z,20.20
2022-12-14T11:43:03.931Z,25.67
2022-12-14T11:45:34.371Z,19.98
2022-12-14T11:48:22.204Z,22.77
2022-12-14T11:50:50.764Z,15.60
2022-12-14T11:53:20.703Z,19.58
2022-12-14T11:55:57.554Z,16.67
2022-12-14T11:58:29.386Z,23.23
2022-12-14T12:01:13.467Z,28.30
2022-12-14T12:03:46.921Z,26.58
2022-12-14T12:06:21.317Z,23.88
2022-12-14T12:08:56.162Z,19.75
2022-12-14T12:11:28.128Z,27.92
2022-12-14T12:14:17.820Z,33.42
2022-12-14T12:16:45.188Z,28.13
2022-12-14T12:19:19.439Z,34.63
2022-12-14T12:21:47.716Z,31.95
2022-12-14T12:25:08.349Z,33.80
2022-12-14T12:27:33.388Z,30.67
2022-12-14T12:30:30.259Z,27.98
2022-12-14T12:33:09.488Z,29.83
2022-12-14T12:35:45.609Z,38.58
2022-12-14T12:38:49.955Z,34.97
2022-12-14T12:41:42.252Z,27.70
2022-12-14T12:44:49.557Z,37.00
2022-12-14T12:47:38.449Z,23.75
2022-12-14T12:50:22.927Z,36.63
2022-12-14T12:53:04.685Z,27.33
2022-12-14T12:56:08.939Z,29.92
2022-12-14T12:58:37.987Z,29.90
2022-12-14T13:01:29.519Z,42.00
2022-12-14T13:04:02.693Z,33.33
2022-12-14T13:06:40.994Z,33.67
2022-12-14T13:09:21.510Z,26.23
2022-12-14T13:11:49.354Z,30.30
2022-12-14T13:14:25.217Z,31.73
2022-12-14T13:16:54.474Z,33.28
2022-12-14T13:19:54.583Z,39.65
2022-12-14T13:22:28.857Z,31.60
2022-12-14T13:25:06.837Z,23.50
2022-12-14T13:27:42.327Z,30.48
2022-12-14T13:30:18.932Z,26.45
2022-12-14T13:33:13.172Z,19.10
2022-12-14T13:38:43.231Z,21.10
2022-12-14T13:41:28.059Z,20.88
2022-12-14T13:44:04.653Z,18.58
2022-12-14T13:46:32.144Z,19.73
2022-12-14T13:49:03.210Z,28.00
2022-12-14T13:51:31.672Z,22.65
2022-12-14T13:54:01.085Z,21.35
2022-12-14T13:56:39.855Z,26.73
2022-12-14T13:59:28.587Z,21.65
2022-12-14T14:01:59.016Z,15.80
2022-12-14T14:04:29.860Z,14.25
2022-12-14T14:07:25.681Z,14.35
2022-12-14T14:09:55.844Z,15.43
2022-12-14T14:12:37.630Z,17.17
2022-12-14T14:15:26.342Z,12.48
2022-12-14T14:17:54.707Z,17.25
2022-12-14T14:20:36.744Z,15.30
2022-12-14T14:23:16.151Z,17.58
2022-12-14T14:25:54.193Z,17.10
2022-12-14T14:28:28.435Z,14.00
2022-12-14T14:31:00.035Z,23.65
2022-12-14T14:33:45.299Z,19.40
2022-12-14T14:36:33.918Z,17.65
2022-12-14T14:39:03.261Z,14.98
2022-12-14T14:41:43.940Z,18.20
2022-12-14T14:44:26.399Z,29.27
2022-12-14T14:46:53.806Z,26.42
2022-12-14T14:49:39.675Z,21.65
2022-12-14T14:52:37.853Z,16.67
2022-12-14T14:55:54.747Z,15.55
2022-12-14T14:58:40.155Z,20.38
2022-12-14T15:01:07.139Z,20.05
2022-12-14T15:03:46.732Z,14.23
2022-12-14T15:06:22.315Z,28.60
2022-12-14T15:09:05.795Z,30.15
2022-12-14T15:11:43.070Z,32.38
2022-12-14T15:14:21.440Z,22.52
2022-12-14T15:16:48.565Z,32.83
2022-12-14T15:19:38.982Z,33.72
2022-12-14T15:22:08.029Z,38.58
2022-12-14T15:24:41.508Z,39.25
2022-12-14T15:27:17.485Z,31.63
2022-12-14T15:29:49.197Z,43.97
2022-12-14T15:32:18.783Z,20.98
2022-12-14T15:35:08.133Z,20.30
2022-12-14T15:38:03.086Z,19.25
2022-12-14T15:40:31.355Z,17.10
2022-12-14T15:43:01.848Z,19.15
2022-12-14T15:45:31.943Z,23.45
2022-12-14T15:48:23.668Z,20.63
2022-12-14T15:50:56.305Z,22.08
2022-12-14T15:53:33.007Z,23.00
2022-12-14T15:56:08.429Z,24.52
2022-12-14T15:58:41.100Z,23.48
2022-12-14T16:01:22.325Z,23.48
2022-12-14T16:03:55.645Z,23.52
2022-12-14T16:06:24.913Z,25.48
2022-12-14T16:09:23.884Z,26.73
2022-12-14T16:11:56.275Z,23.08
2022-12-14T16:14:45.556Z,28.80
2022-12-14T16:17:16.330Z,38.95
2022-12-14T16:19:59.442Z,27.27
2022-12-14T16:25:01.972Z,34.83
2022-12-14T16:27:30.969Z,29.77
2022-12-14T16:30:22.543Z,26.05
2022-12-14T16:33:14.512Z,33.20
2022-12-14T16:35:41.758Z,26.60
2022-12-14T16:38:14.035Z,31.25
2022-12-14T16:40:52.139Z,18.75
2022-12-14T16:43:31.102Z,27.95
2022-12-14T16:46:08.273Z,26.17
2022-12-14T16:48:38.322Z,53.03
2022-12-14T16:51:24.665Z,39.15
2022-12-14T16:54:02.514Z,40.05
2022-12-14T16:56:52.003Z,32.60
2022-12-14T16:59:48.232Z,21.10
2022-12-14T17:03:00.784Z,20.33
2022-12-14T17:05:34.153Z,16.48
2022-12-14T17:08:01.954Z,20.70
2022-12-14T17:10:29.512Z,13.25
2022-12-14T17:13:01.147Z,19.35
2022-12-14T17:15:31.230Z,18.83
2022-12-14T17:18:00.523Z,14.63
2022-12-14T17:20:37.110Z,12.55
2022-12-14T17:23:06.684Z,14.50
2022-12-14T17:25:34.196Z,17.10
2022-12-14T17:28:01.966Z,15.20
2022-12-14T17:30:29.199Z,15.95
2022-12-14T17:32:57.931Z,13.38
2022-12-14T17:35:30.008Z,14.30
2022-12-14T17:37:57.625Z,21.70
2022-12-14T17:40:25.091Z,14.63
2022-12-14T17:42:54.939Z,15.13
2022-12-14T17:45:29.415Z,12.75
2022-12-14T17:47:57.201Z,12.38
2022-12-14T17:50:27.771Z,11.10
2022-12-14T17:52:55.093Z,13.43
2022-12-14T17:55:25.585Z,13.00
2022-12-14T17:57:53.836Z,13.80
2022-12-14T18:00:47.022Z,13.60
2022-12-14T18:03:16.390Z,14.50
2022-12-14T18:05:48.902Z,12.63
2022-12-14T18:08:17.511Z,15.32
2022-12-14T18:10:44.977Z,11.07
2022-12-14T18:13:13.395Z,13.75
2022-12-14T18:15:50.037Z,17.08
2022-12-14T18:18:21.819Z,14.02
2022-12-14T18:20:52.132Z,11.35
2022-12-14T18:23:20.673Z,11.20
2022-12-14T18:25:50.702Z,11.32
2022-12-14T18:28:17.855Z,10.77
2022-12-14T18:30:49.843Z,14.70
2022-12-14T18:33:25.859Z,7.30
2022-12-14T18:35:54.972Z,9.68
2022-12-14T18:38:22.274Z,10.73
2022-12-14T18:40:51.935Z,13.25
2022-12-14T18:43:24.052Z,14.55
2022-12-14T18:45:53.406Z,14.15
2022-12-14T18:48:21.041Z,15.02
2022-12-14T18:50:49.593Z,12.07
2022-12-14T18:53:19.302Z,14.35
2022-12-14T18:55:46.770Z,14.07
2022-12-14T18:58:19.742Z,13.55
2022-12-14T19:00:48.210Z,16.27
2022-12-14T19:03:15.568Z,15.60
2022-12-14T19:05:43.841Z,11.73
2022-12-14T19:08:11.561Z,17.13
2022-12-14T19:10:41.477Z,13.52
2022-12-14T19:13:24.759Z,15.30
2022-12-14T19:18:20.234Z,22.17
2022-12-14T19:20:50.565Z,15.50
2022-12-14T19:23:19.930Z,14.02
2022-12-14T19:25:57.052Z,17.92
2022-12-14T19:28:32.598Z,25.27
2022-12-14T19:31:03.668Z,18.15
2022-12-14T19:33:31.746Z,18.90
2022-12-14T19:36:02.784Z,16.35
2022-12-14T19:38:30.615Z,17.20
2022-12-14T19:40:59.399Z,14.90
2022-12-14T19:43:26.462Z,19.38
2022-12-14T19:45:53.672Z,13.98
2022-12-14T19:48:21.182Z,15.10
2022-12-14T19:50:49.454Z,19.40
2022-12-14T19:53:27.562Z,16.48
2022-12-14T19:55:54.806Z,15.13
2022-12-14T19:58:22.750Z,13.43
2022-12-14T20:00:50.874Z,16.02
2022-12-14T20:03:18.532Z,16.02
2022-12-14T20:05:51.907Z,15.65
2022-12-14T20:08:19.039Z,15.65
2022-12-14T20:10:46.372Z,20.77
2022-12-14T20:13:13.882Z,19.02
2022-12-14T20:15:47.405Z,24.30
2022-12-14T20:18:14.504Z,18.55
2022-12-14T20:20:41.697Z,12.35
2022-12-14T20:23:08.774Z,15.07
2022-12-14T20:25:36.619Z,16.30
2022-12-14T20:28:03.911Z,13.40
2022-12-14T20:30:32.197Z,15.35
2022-12-14T20:32:59.207Z,18.38
2022-12-14T20:35:26.583Z,16.50
2022-12-14T20:37:54.333Z,14.98
2022-12-14T20:40:21.402Z,16.38
2022-12-14T20:42:48.892Z,13.13
2022-12-14T20:45:15.884Z,15.30
2022-12-14T20:47:42.969Z,16.00
2022-12-14T20:50:10.002Z,20.23
2022-12-14T20:52:37.222Z,19.98
2022-12-14T20:55:05.185Z,12.98
2022-12-14T20:57:33.451Z,17.33
2022-12-14T21:00:00.641Z,13.35
2022-12-14T21:02:28.011Z,16.30
2022-12-14T21:04:55.152Z,19.45
2022-12-14T21:07:26.070Z,17.75
2022-12-14T21:09:53.712Z,19.27
2022-12-14T21:12:23.483Z,19.85
2022-12-14T21:14:53.263Z,15.95
2022-12-14T21:17:23.454Z,24.45
2022-12-14T21:19:50.885Z,22.38
2022-12-14T21:22:20.343Z,22.15
2022-12-14T21:25:05.728Z,16.77
2022-12-14T21:27:35.553Z,23.30
2022-12-14T21:30:02.730Z,14.63
2022-12-14T21:32:30.014Z,20.63
2022-12-14T21:34:56.989Z,15.85
2022-12-14T21:37:24.225Z,17.58
2022-12-14T21:39:55.030Z,15.30
2022-12-14T21:42:26.366Z,16.77
2022-12-14T21:44:54.516Z,19.25
2022-12-14T21:47:29.670Z,14.27
2022-12-14T21:49:57.225Z,17.42
2022-12-14T21:52:27.040Z,25.45
2022-12-14T21:54:54.239Z,21.15
2022-12-14T21:57:42.396Z,21.55
2022-12-14T22:00:10.959Z,18.98
2022-12-14T22:02:39.893Z,18.85
2022-12-14T22:05:07.483Z,18.58
2022-12-14T22:07:34.781Z,21.27
2022-12-14T22:10:01.877Z,17.40
2022-12-14T22:12:29.083Z,18.25
2022-12-14T22:14:57.611Z,18.02
2022-12-14T22:17:24.790Z,19.42
2022-12-14T22:19:55.356Z,17.42
2022-12-14T22:22:23.050Z,14.02
2022-12-14T22:24:51.443Z,12.35
2022-12-14T22:27:19.513Z,15.27
2022-12-14T22:29:46.661Z,18.83
2022-12-14T22:32:14.276Z,16.25
2022-12-14T22:34:41.472Z,14.73
2022-12-14T22:37:08.768Z,16.10
2022-12-14T22:39:35.803Z,15.57
2022-12-14T22:42:02.822Z,18.30
2022-12-14T22:44:30.364Z,15.60
2022-12-14T22:46:58.033Z,15.85
2022-12-14T22:49:26.121Z,19.55
2022-12-14T22:51:54.184Z,14.88
2022-12-14T22:54:26.429Z,16.30
2022-12-14T22:56:57.067Z,14.43
2022-12-14T22:59:40.450Z,12.40
2022-12-14T23:02:07.758Z,13.00
2022-12-14T23:04:37.672Z,11.57
2022-12-14T23:07:05.662Z,15.65
2022-12-14T23:09:51.132Z,16.90
2022-12-14T23:12:36.803Z,15.25
2022-12-14T23:15:22.846Z,14.80
2022-12-14T23:18:08.539Z,15.07
2022-12-14T23:20:57.385Z,23.58
2022-12-14T23:23:42.968Z,14.88
2022-12-14T23:26:28.731Z,13.90
2022-12-14T23:29:14.187Z,15.60
2022-12-14T23:32:00.450Z,12.95
2022-12-14T23:34:46.175Z,14.18
2022-12-14T23:37:33.662Z,15.88
2022-12-14T23:40:19.191Z,16.45
2022-12-14T23:43:04.768Z,13.43
2022-12-14T23:45:50.305Z,22.33
2022-12-14T23:48:36.229Z,20.35
2022-12-14T23:51:23.808Z,13.07
2022-12-14T23:54:09.566Z,14.10
2022-12-14T23:56:55.797Z,16.05
2022-12-14T23:59:41.386Z,13.27
